Monday, November 19, 2018, 7:20 AM GMT
Back to Local

CYYY, Mont Joli, Que.

Location: , , Canada Lat: 48.6
Local Time: 7:20 AM GMT ( 7:20 GMT) Lon: -68.217
Time Zone: GMT Elev: 157 ft

Show me the last for .
Show Decoded

2018-11-19 07:00 METAR CYYY 190700Z 20009KT 15SM FEW025 BKN130 M09/M13 A3015 RMK SC2AC5 SLP214 =
2018-11-19 06:39 METAR CYYY 190639Z 20009KT 15SM FEW025 BKN130 M09/M13 A3015 RMK SC2AC5 SLP216 =
2018-11-19 06:00 METAR CYYY 190600Z 20011KT 15SM -SN SCT025 OVC130 M09/M13 A3016 RMK SC3AC5
                 SLP217 =
2018-11-19 05:00 METAR CYYY 190500Z 20010G15KT 15SM -SN SCT030 OVC150 M09/M13 A3017 RMK SC3AC5
                 SLP221 =
2018-11-19 04:00 METAR CYYY 190400Z 20011G16KT 4SM -SN OVC025 M09/M13 A3018 RMK SC8 SLP224 =
2018-11-19 03:26 METAR CYYY 190326Z 20012G17KT 15SM -SN BKN028 M09/M14 A3018 RMK SC7 SLP225 =
2018-11-19 03:00 METAR CYYY 190300Z 21010KT 15SM SCT030 M09/M14 A3019 RMK SC4 SLP228 =
2018-11-19 02:00 METAR CYYY 190200Z 17008KT 15SM SCT030 M11/M15 A3020 RMK SC3 SLP232 =
2018-11-19 01:00 METAR CYYY 190100Z 18007KT 15SM BKN028 M09/M14 A3021 RMK SC5 SLP235 =
2018-11-19 00:00 METAR CYYY 190000Z 16005KT 15SM BKN030 M13/M16 A3022 RMK SC6 SLP241 =
2018-11-18 23:00 METAR CYYY 182300Z 16005KT 30SM SCT035 M12/M16 A3024 RMK SC3 SLP245 =
2018-11-18 22:00 METAR CYYY 182200Z 21006KT 30SM SCT030 M09/M15 A3023 RMK SC3 SLP243 =
2018-11-18 21:00 METAR CYYY 182100Z 20007KT 30SM SCT031 M08/M14 A3024 RMK SC3 SLP244 =
2018-11-18 20:00 METAR CYYY 182000Z 23009G17KT 30SM BKN032 M07/M14 A3024 RMK SC6 SLP245 =
2018-11-18 19:00 METAR CYYY 181900Z 25012KT 30SM BKN032 M07/M14 A3025 RMK SC6 SLP250 =
2018-11-18 18:00 METAR CYYY 181800Z 26010G15KT 30SM BKN032 M08/M14 A3025 RMK SC6 SLP250 =
2018-11-18 17:00 METAR CYYY 181700Z 27011G20KT 15SM BKN035 M08/M15 A3027 RMK SC5 SLP254 =
2018-11-18 16:00 METAR CYYY 181600Z 26016G23KT 30SM BKN035 M09/M16 A3028 RMK SC7 SLP258 =
2018-11-18 15:00 METAR CYYY 181500Z 25010KT 30SM BKN035 M08/M15 A3028 RMK SC7 SLP259 =
2018-11-18 14:00 METAR CYYY 181400Z 26012G21KT 30SM BKN030 M08/M14 A3027 RMK SC7 SLP255 =
2018-11-18 13:13 METAR CYYY 181313Z 26015KT 30SM BKN028 M08/M13 A3025 RMK SC7 SLP250 =
2018-11-18 13:00 METAR CYYY 181300Z 26015G21KT 30SM -SN BKN032 M08/M13 A3025 RMK SC7 SLP248 =
2018-11-18 12:00 METAR CYYY 181200Z 28014G20KT 30SM -SN BKN029 M07/M13 A3022 RMK SC7 SLP238 =
2018-11-18 11:00 METAR CYYY 181100Z 29015G23KT 15SM -SN OVC032 M07/M12 A3018 RMK SC8 SLP225 =
2018-11-18 10:00 METAR CYYY 181000Z 27015G20KT 15SM -SN BKN030 M06/M11 A3015 RMK SC7 SLP214 =
2018-11-18 09:13 METAR CYYY 180913Z 28012G18KT 15SM -SN BKN030 M05/M11 A3013 RMK SC7 SLP207 =
2018-11-18 09:00 METAR CYYY 180900Z 29013KT 15SM BKN032 M05/M11 A3012 RMK SC6 SLP205 =
2018-11-18 08:00 METAR CYYY 180800Z 28015G22KT 15SM FEW025 M05/M10 A3010 RMK SC2 SLP199 =

Support USWX by starting your Amazon purchase here.